createdAt,value
2018-02-21T00:00:57.420Z,0
2018-02-21T00:02:06.654Z,0
2018-02-21T00:03:15.628Z,0
2018-02-21T00:04:25.133Z,0
2018-02-21T00:05:34.103Z,0
2018-02-21T00:06:43.069Z,0
2018-02-21T00:07:52.308Z,0
2018-02-21T00:09:01.276Z,0
2018-02-21T00:10:10.516Z,0
2018-02-21T00:11:19.748Z,0
2018-02-21T00:12:28.448Z,0
2018-02-21T00:13:37.437Z,0
2018-02-21T00:14:47.211Z,0
2018-02-21T00:15:56.448Z,0
2018-02-21T00:17:05.683Z,0
2018-02-21T00:18:14.645Z,0
2018-02-21T00:19:23.881Z,0
2018-02-21T00:20:33.113Z,0
2018-02-21T00:21:42.352Z,0
2018-02-21T00:22:51.051Z,0
2018-02-21T00:24:00.288Z,0
2018-02-21T00:25:09.264Z,0
2018-02-21T00:26:17.959Z,0
2018-02-21T00:27:26.926Z,0
2018-02-21T00:28:35.896Z,0
2018-02-21T00:29:44.873Z,0
2018-02-21T00:30:54.651Z,0
2018-02-21T00:32:03.623Z,0
2018-02-21T00:33:12.862Z,0
2018-02-21T00:34:21.836Z,0
2018-02-21T00:35:30.533Z,0
2018-02-21T00:36:40.313Z,0
2018-02-21T00:37:49.551Z,0
2018-02-21T00:38:58.524Z,0
2018-02-21T00:40:07.491Z,0
2018-02-21T00:41:16.732Z,0
2018-02-21T00:42:25.698Z,0
2018-02-21T00:43:34.934Z,0
2018-02-21T00:44:43.905Z,0
2018-02-21T00:45:52.875Z,0
2018-02-21T00:47:02.118Z,0
2018-02-21T00:48:11.083Z,0
2018-02-21T00:49:20.321Z,0
2018-02-21T00:50:29.289Z,0
2018-02-21T00:51:37.990Z,0
2018-02-21T00:52:47.498Z,0
2018-02-21T00:53:56.464Z,0
2018-02-21T00:55:05.434Z,0
2018-02-21T00:56:15.218Z,0
2018-02-21T00:57:24.457Z,0
2018-02-21T00:58:33.957Z,0
2018-02-21T00:59:42.926Z,0
2018-02-21T01:00:52.165Z,0
2018-02-21T01:02:00.865Z,0
2018-02-21T01:03:10.370Z,0
2018-02-21T01:04:19.344Z,0
2018-02-21T01:05:28.584Z,0
2018-02-21T01:06:37.557Z,0
2018-02-21T01:07:46.524Z,0
2018-02-21T01:08:55.759Z,0
2018-02-21T01:10:04.996Z,0
2018-02-21T01:11:14.496Z,0
2018-02-21T01:12:23.732Z,0
2018-02-21T01:13:32.696Z,0
2018-02-21T01:14:42.207Z,0
2018-02-21T01:15:51.441Z,0
2018-02-21T01:17:00.137Z,0
2018-02-21T01:18:09.374Z,0
2018-02-21T01:19:18.344Z,0
2018-02-21T01:20:27.049Z,0
2018-02-21T01:21:36.563Z,0
2018-02-21T01:22:46.082Z,0
2018-02-21T01:23:55.592Z,0
2018-02-21T01:25:05.104Z,0
2018-02-21T01:26:14.069Z,0
2018-02-21T01:27:23.037Z,0
2018-02-21T01:28:32.543Z,0
2018-02-21T01:29:42.047Z,0
2018-02-21T01:30:51.015Z,0
2018-02-21T01:31:59.981Z,0
2018-02-21T01:33:08.951Z,0
2018-02-21T01:34:18.185Z,0
2018-02-21T01:35:27.420Z,0
2018-02-21T01:36:36.116Z,0
2018-02-21T01:37:44.815Z,0
2018-02-21T01:38:53.514Z,0
2018-02-21T01:40:02.760Z,0
2018-02-21T01:41:12.000Z,0
2018-02-21T01:42:21.242Z,0
2018-02-21T01:43:30.755Z,0
2018-02-21T01:44:39.452Z,0
2018-02-21T01:45:48.419Z,0
2018-02-21T01:46:57.433Z,0
2018-02-21T01:48:06.350Z,0
2018-02-21T01:49:15.315Z,0
2018-02-21T01:50:24.286Z,0
2018-02-21T01:51:33.253Z,0
2018-02-21T01:52:41.950Z,0
2018-02-21T01:53:51.188Z,0
2018-02-21T01:55:00.157Z,0
2018-02-21T01:56:09.666Z,0
2018-02-21T01:57:18.634Z,0
2018-02-21T01:58:27.864Z,0
2018-02-21T01:59:36.560Z,0
2018-02-21T02:00:45.261Z,0
2018-02-21T02:01:53.958Z,0
2018-02-21T02:03:02.925Z,0
2018-02-21T02:04:12.435Z,0
2018-02-21T02:05:21.943Z,0
2018-02-21T02:06:31.449Z,0
2018-02-21T02:07:40.148Z,0
2018-02-21T02:08:49.392Z,0
2018-02-21T02:09:58.634Z,0
2018-02-21T02:11:07.328Z,0
2018-02-21T02:12:16.306Z,0
2018-02-21T02:13:25.809Z,0
2018-02-21T02:14:34.509Z,0
2018-02-21T02:15:43.475Z,0
2018-02-21T02:16:52.713Z,0
2018-02-21T02:18:02.224Z,0
2018-02-21T02:19:11.460Z,0
2018-02-21T02:20:20.431Z,0
2018-02-21T02:21:29.666Z,0
2018-02-21T02:22:39.173Z,0
2018-02-21T02:23:48.684Z,0
2018-02-21T02:24:57.650Z,0
2018-02-21T02:26:06.621Z,0
2018-02-21T02:27:16.131Z,0
2018-02-21T02:28:25.637Z,0
2018-02-21T02:29:34.603Z,0
2018-02-21T02:30:43.572Z,0
2018-02-21T02:31:52.546Z,0
2018-02-21T02:33:01.826Z,0
2018-02-21T02:34:11.058Z,0
2018-02-21T02:35:20.298Z,0
2018-02-21T02:36:29.277Z,0
2018-02-21T02:37:38.519Z,0
2018-02-21T02:38:47.752Z,0
2018-02-21T02:39:56.720Z,0
2018-02-21T02:41:05.686Z,0
2018-02-21T02:42:14.657Z,0
2018-02-21T02:43:24.166Z,0
2018-02-21T02:44:33.670Z,0
2018-02-21T02:45:42.909Z,0
2018-02-21T02:46:52.159Z,0
2018-02-21T02:48:00.859Z,0
2018-02-21T02:49:09.830Z,0
2018-02-21T02:50:18.801Z,0
2018-02-21T02:51:28.043Z,0
2018-02-21T02:52:37.284Z,0
2018-02-21T02:53:46.529Z,0
2018-02-21T02:54:55.784Z,0
2018-02-21T02:56:05.020Z,0
2018-02-21T02:57:13.986Z,0
2018-02-21T02:58:23.501Z,0
2018-02-21T02:59:32.488Z,0
2018-02-21T03:00:42.012Z,0
2018-02-21T03:01:51.531Z,0
2018-02-21T03:03:00.230Z,0
2018-02-21T03:04:09.206Z,0
2018-02-21T03:05:18.447Z,0
2018-02-21T03:06:27.688Z,0
2018-02-21T03:07:36.720Z,0
2018-02-21T03:08:46.488Z,0
2018-02-21T03:09:55.457Z,0
2018-02-21T03:11:04.420Z,0
2018-02-21T03:12:13.926Z,0
2018-02-21T03:13:23.163Z,0
2018-02-21T03:14:31.862Z,0
2018-02-21T03:15:40.833Z,0
2018-02-21T03:16:50.341Z,0
2018-02-21T03:17:59.576Z,0
2018-02-21T03:19:08.810Z,0
2018-02-21T03:20:17.508Z,0
2018-02-21T03:21:26.475Z,0
2018-02-21T03:22:35.737Z,0
2018-02-21T03:23:44.413Z,0
2018-02-21T03:24:53.375Z,0
2018-02-21T03:26:02.342Z,0
2018-02-21T03:27:11.844Z,0
2018-02-21T03:28:21.891Z,0
2018-02-21T03:29:30.861Z,0
2018-02-21T03:30:40.105Z,0
2018-02-21T03:31:48.807Z,0
2018-02-21T03:32:58.046Z,0
2018-02-21T03:34:07.555Z,0
2018-02-21T03:35:16.840Z,0
2018-02-21T03:36:25.491Z,0
2018-02-21T03:37:34.456Z,0
2018-02-21T03:38:43.431Z,0
2018-02-21T03:39:53.210Z,0
2018-02-21T03:41:01.909Z,0
2018-02-21T03:42:11.140Z,0
2018-02-21T03:43:20.646Z,0
2018-02-21T03:44:29.344Z,0
2018-02-21T03:45:38.313Z,0
2018-02-21T03:46:47.814Z,0
2018-02-21T03:47:56.778Z,0
2018-02-21T03:49:05.477Z,0
2018-02-21T03:50:14.691Z,0
2018-02-21T03:51:23.949Z,0
2018-02-21T03:52:32.847Z,0
2018-02-21T03:53:41.525Z,0
2018-02-21T03:54:50.203Z,0
2018-02-21T03:55:59.420Z,0
2018-02-21T03:57:08.362Z,0
2018-02-21T03:58:17.568Z,0
2018-02-21T03:59:26.790Z,0
2018-02-21T04:00:35.730Z,0
2018-02-21T04:01:44.403Z,0
2018-02-21T04:02:53.350Z,0
2018-02-21T04:04:02.286Z,0
2018-02-21T04:05:11.023Z,0
2018-02-21T04:06:20.495Z,0
2018-02-21T04:07:29.442Z,0
2018-02-21T04:08:38.385Z,0
2018-02-21T04:09:47.596Z,0
2018-02-21T04:10:56.537Z,0
2018-02-21T04:12:05.482Z,0
2018-02-21T04:13:14.690Z,0
2018-02-21T04:14:24.164Z,0
2018-02-21T04:15:33.105Z,0
2018-02-21T04:16:42.584Z,0
2018-02-21T04:17:51.796Z,0
2018-02-21T04:19:01.272Z,0
2018-02-21T04:20:10.478Z,0
2018-02-21T04:21:19.419Z,0
2018-02-21T04:22:28.632Z,0
2018-02-21T04:23:37.578Z,0
2018-02-21T04:24:47.055Z,0
2018-02-21T04:25:56.000Z,0
2018-02-21T04:27:04.942Z,0
2018-02-21T04:28:14.150Z,0
2018-02-21T04:29:23.094Z,0
2018-02-21T04:30:32.045Z,0
2018-02-21T04:31:40.724Z,0
2018-02-21T04:32:49.669Z,0
2018-02-21T04:33:58.614Z,0
2018-02-21T04:35:07.564Z,0
2018-02-21T04:36:17.037Z,0
2018-02-21T04:37:25.715Z,0
2018-02-21T04:38:34.392Z,0
2018-02-21T04:39:43.335Z,0
2018-02-21T04:40:52.014Z,0
2018-02-21T04:42:00.690Z,0
2018-02-21T04:43:10.166Z,0
2018-02-21T04:44:19.106Z,0
2018-02-21T04:45:28.583Z,0
2018-02-21T04:46:38.329Z,0
2018-02-21T04:47:47.277Z,0
2018-02-21T04:48:56.495Z,0
2018-02-21T04:50:05.443Z,0
2018-02-21T04:51:14.392Z,0
2018-02-21T04:52:23.865Z,0
2018-02-21T04:53:33.072Z,0
2018-02-21T04:54:42.545Z,0
2018-02-21T04:55:51.760Z,0
2018-02-21T04:57:00.435Z,0
2018-02-21T04:58:09.377Z,0
2018-02-21T04:59:18.055Z,0
2018-02-21T05:00:26.998Z,0
2018-02-21T05:01:35.948Z,0
2018-02-21T05:02:45.426Z,0
2018-02-21T05:03:54.906Z,0
2018-02-21T05:05:04.123Z,0
2018-02-21T05:06:13.069Z,0
2018-02-21T05:07:22.278Z,0
2018-02-21T05:08:31.224Z,0
2018-02-21T05:09:40.175Z,0
2018-02-21T05:10:49.384Z,0
2018-02-21T05:11:58.064Z,0
2018-02-21T05:13:07.275Z,0
2018-02-21T05:14:16.218Z,0
2018-02-21T05:15:24.898Z,0
2018-02-21T05:16:33.904Z,0
2018-02-21T05:17:42.826Z,0
2018-02-21T05:18:52.571Z,0
2018-02-21T05:20:01.248Z,0
2018-02-21T05:21:10.194Z,0
2018-02-21T05:22:19.404Z,0
2018-02-21T05:23:28.613Z,0
2018-02-21T05:24:37.828Z,0
2018-02-21T05:25:46.772Z,0
2018-02-21T05:26:56.250Z,0
2018-02-21T05:28:05.193Z,0
2018-02-21T05:29:14.139Z,0
2018-02-21T05:30:23.618Z,0
2018-02-21T05:31:32.887Z,0
2018-02-21T05:32:41.827Z,0
2018-02-21T05:33:50.773Z,0
2018-02-21T05:34:59.720Z,0
2018-02-21T05:36:09.194Z,0
2018-02-21T05:37:19.271Z,0
2018-02-21T05:38:28.741Z,0
2018-02-21T05:39:38.497Z,0
2018-02-21T05:40:47.173Z,0
2018-02-21T05:41:56.118Z,0
2018-02-21T05:43:04.799Z,0
2018-02-21T05:44:14.546Z,0
2018-02-21T05:45:24.020Z,0
2018-02-21T05:46:33.227Z,0
2018-02-21T05:47:42.439Z,0
2018-02-21T05:48:51.649Z,0
2018-02-21T05:50:00.592Z,0
2018-02-21T05:51:10.068Z,0
2018-02-21T05:52:18.749Z,0
2018-02-21T05:53:27.952Z,0
2018-02-21T05:54:36.896Z,0
2018-02-21T05:55:45.576Z,0
2018-02-21T05:56:54.787Z,0
2018-02-21T05:58:04.278Z,0
2018-02-21T05:59:13.220Z,0
2018-02-21T06:00:22.440Z,0
2018-02-21T06:01:31.939Z,0
2018-02-21T06:02:41.227Z,0
2018-02-21T06:03:49.909Z,0
2018-02-21T06:04:59.120Z,0
2018-02-21T06:06:08.331Z,0
2018-02-21T06:07:17.551Z,0
2018-02-21T06:08:27.023Z,0
2018-02-21T06:09:36.507Z,0
2018-02-21T06:10:45.453Z,0
2018-02-21T06:11:54.404Z,0
2018-02-21T06:13:03.888Z,0
2018-02-21T06:14:13.362Z,0
2018-02-21T06:15:22.303Z,0
2018-02-21T06:16:31.513Z,0
2018-02-21T06:17:40.734Z,0
2018-02-21T06:18:49.943Z,0
2018-02-21T06:19:59.151Z,0
2018-02-21T06:21:08.625Z,0
2018-02-21T06:22:18.100Z,0
2018-02-21T06:23:27.043Z,0
2018-02-21T06:24:35.718Z,0
2018-02-21T06:25:44.675Z,0
2018-02-21T06:26:53.899Z,0
2018-02-21T06:28:03.642Z,0
2018-02-21T06:29:12.586Z,0
2018-02-21T06:30:21.796Z,0
2018-02-21T06:31:30.754Z,0
2018-02-21T06:32:39.972Z,0
2018-02-21T06:33:49.178Z,0
2018-02-21T06:34:58.128Z,0
2018-02-21T06:36:07.076Z,0
2018-02-21T06:37:16.558Z,0
2018-02-21T06:38:26.040Z,0
2018-02-21T06:39:35.264Z,0
2018-02-21T06:40:43.937Z,0
2018-02-21T06:41:52.618Z,0
2018-02-21T06:43:01.297Z,0
2018-02-21T06:44:10.246Z,0
2018-02-21T06:45:19.456Z,0
2018-02-21T06:46:28.134Z,0
2018-02-21T06:47:37.079Z,0
2018-02-21T06:48:46.025Z,0
2018-02-21T06:49:54.971Z,0
2018-02-21T06:51:04.185Z,0
2018-02-21T06:52:13.399Z,0
2018-02-21T06:53:22.342Z,0
2018-02-21T06:54:31.025Z,0
2018-02-21T06:55:40.508Z,0
2018-02-21T06:56:49.721Z,0
2018-02-21T06:57:58.933Z,0
2018-02-21T06:59:08.152Z,0
2018-02-21T07:00:17.686Z,0
2018-02-21T07:01:26.364Z,0
2018-02-21T07:02:35.576Z,0
2018-02-21T07:03:44.251Z,0
2018-02-21T07:04:53.462Z,0
2018-02-21T07:06:02.411Z,0
2018-02-21T07:07:11.364Z,0
2018-02-21T07:08:20.847Z,0
2018-02-21T07:09:29.789Z,0
2018-02-21T07:10:38.997Z,0
2018-02-21T07:11:48.475Z,0
2018-02-21T07:12:57.949Z,0
2018-02-21T07:14:07.697Z,0
2018-02-21T07:15:16.644Z,0
2018-02-21T07:16:25.320Z,0
2018-02-21T07:17:34.799Z,0
2018-02-21T07:18:44.012Z,4
2018-02-21T07:19:53.221Z,4
2018-02-21T07:21:02.962Z,4
2018-02-21T07:22:12.438Z,4
2018-02-21T07:23:21.651Z,4
2018-02-21T07:24:30.596Z,4
2018-02-21T07:25:39.819Z,0
2018-02-21T07:26:49.564Z,0
2018-02-21T07:27:58.508Z,0
2018-02-21T07:29:07.455Z,0
2018-02-21T07:30:16.938Z,0
2018-02-21T07:31:26.148Z,0
2018-02-21T07:32:35.094Z,0
2018-02-21T07:33:44.302Z,0
2018-02-21T07:34:53.785Z,0
2018-02-21T07:36:02.994Z,0
2018-02-21T07:37:12.475Z,0
2018-02-21T07:38:22.222Z,0
2018-02-21T07:39:31.703Z,0
2018-02-21T07:40:40.918Z,0
2018-02-21T07:41:50.139Z,0
2018-02-21T07:42:59.085Z,0
2018-02-21T07:44:08.034Z,4
2018-02-21T07:45:17.023Z,4
2018-02-21T07:46:26.234Z,4
2018-02-21T07:47:35.706Z,4
2018-02-21T07:48:44.394Z,4
2018-02-21T07:49:53.610Z,4
2018-02-21T07:51:03.098Z,4
2018-02-21T07:52:12.043Z,4
2018-02-21T07:53:21.252Z,4
2018-02-21T07:54:30.471Z,0
2018-02-21T07:55:39.416Z,0
2018-02-21T07:56:48.358Z,0
2018-02-21T07:57:57.572Z,0
2018-02-21T07:59:07.311Z,0
2018-02-21T08:00:16.253Z,0
2018-02-21T08:01:24.933Z,0
2018-02-21T08:02:34.408Z,4
2018-02-21T08:03:43.622Z,4
2018-02-21T08:04:52.568Z,4
2018-02-21T08:06:01.512Z,4
2018-02-21T08:07:10.462Z,4
2018-02-21T08:08:19.942Z,4
2018-02-21T08:09:28.618Z,4
2018-02-21T08:10:37.833Z,4
2018-02-21T08:11:47.045Z,0
2018-02-21T08:12:56.521Z,4
2018-02-21T08:14:06.191Z,4
2018-02-21T08:15:15.403Z,4
2018-02-21T08:16:24.676Z,4
2018-02-21T08:17:33.903Z,4
2018-02-21T08:18:42.580Z,4
2018-02-21T08:19:51.256Z,8
2018-02-21T08:21:00.470Z,4
2018-02-21T08:22:09.685Z,4
2018-02-21T08:23:18.635Z,4
2018-02-21T08:24:27.570Z,4
2018-02-21T08:25:36.780Z,8
2018-02-21T08:26:45.993Z,4
2018-02-21T08:27:55.474Z,4
2018-02-21T08:29:04.952Z,4
2018-02-21T08:30:14.172Z,4
2018-02-21T08:31:22.850Z,8
2018-02-21T08:32:32.067Z,4
2018-02-21T08:33:41.816Z,4
2018-02-21T08:34:50.761Z,4
2018-02-21T08:35:59.705Z,8
2018-02-21T08:37:08.649Z,8
2018-02-21T08:38:18.127Z,8
2018-02-21T08:39:27.072Z,8
2018-02-21T08:40:36.287Z,8
2018-02-21T08:41:45.834Z,4
2018-02-21T08:42:55.312Z,4
2018-02-21T08:44:04.787Z,8
2018-02-21T08:45:14.272Z,4
2018-02-21T08:46:23.216Z,4
2018-02-21T08:47:32.164Z,4
2018-02-21T08:48:41.373Z,8
2018-02-21T08:49:50.580Z,4
2018-02-21T08:50:59.797Z,4
2018-02-21T08:52:08.796Z,4
2018-02-21T08:53:17.742Z,4
2018-02-21T08:54:26.957Z,4
2018-02-21T08:55:36.448Z,4
2018-02-21T08:56:45.664Z,8
2018-02-21T08:57:54.661Z,4
2018-02-21T08:59:03.824Z,4
2018-02-21T09:00:12.501Z,4
2018-02-21T09:01:21.715Z,4
2018-02-21T09:02:30.658Z,4
2018-02-21T09:03:39.615Z,4
2018-02-21T09:04:49.094Z,8
2018-02-21T09:05:58.038Z,4
2018-02-21T09:07:06.981Z,8
2018-02-21T09:08:16.458Z,4
2018-02-21T09:09:25.931Z,4
2018-02-21T09:10:35.729Z,4
2018-02-21T09:11:44.669Z,4
2018-02-21T09:12:53.622Z,4
2018-02-21T09:14:02.572Z,8
2018-02-21T09:15:11.779Z,4
2018-02-21T09:16:20.991Z,4
2018-02-21T09:17:29.936Z,8
2018-02-21T09:18:38.885Z,8
2018-02-21T09:19:48.629Z,4
2018-02-21T09:20:58.109Z,4
2018-02-21T09:22:06.795Z,8
2018-02-21T09:23:16.048Z,8
2018-02-21T09:24:24.995Z,8
2018-02-21T09:25:33.934Z,8
2018-02-21T09:26:43.142Z,8
2018-02-21T09:27:52.089Z,8
2018-02-21T09:29:01.567Z,8
2018-02-21T09:30:10.514Z,8
2018-02-21T09:31:19.189Z,8
2018-02-21T09:32:28.665Z,8
2018-02-21T09:33:38.144Z,8
2018-02-21T09:34:47.090Z,8
2018-02-21T09:35:55.771Z,8
2018-02-21T09:37:05.041Z,8
2018-02-21T09:38:13.988Z,8
2018-02-21T09:39:22.931Z,8
2018-02-21T09:40:31.612Z,8
2018-02-21T09:41:40.823Z,8
2018-02-21T09:42:50.031Z,8
2018-02-21T09:43:58.971Z,8
2018-02-21T09:45:08.182Z,8
2018-02-21T09:46:17.398Z,4
2018-02-21T09:47:26.908Z,8
2018-02-21T09:48:36.125Z,8
2018-02-21T09:49:45.068Z,8
2018-02-21T09:50:53.744Z,8
2018-02-21T09:52:02.420Z,8
2018-02-21T09:53:11.633Z,8
2018-02-21T09:54:20.576Z,8
2018-02-21T09:55:29.253Z,8
2018-02-21T09:56:38.193Z,8
2018-02-21T09:57:47.404Z,12
2018-02-21T09:58:56.082Z,12
2018-02-21T10:00:05.293Z,8
2018-02-21T10:01:14.508Z,8
2018-02-21T10:02:23.990Z,8
2018-02-21T10:03:32.935Z,8
2018-02-21T10:04:41.615Z,8
2018-02-21T10:05:50.822Z,8
2018-02-21T10:06:59.766Z,12
2018-02-21T10:08:08.441Z,12
2018-02-21T10:09:17.386Z,12
2018-02-21T10:10:26.593Z,8
2018-02-21T10:11:35.807Z,8
2018-02-21T10:12:45.020Z,8
2018-02-21T10:13:54.228Z,12
2018-02-21T10:15:03.185Z,12
2018-02-21T10:16:12.943Z,12
2018-02-21T10:17:21.889Z,12
2018-02-21T10:18:30.834Z,12
2018-02-21T10:19:39.514Z,12
2018-02-21T10:20:48.729Z,12
2018-02-21T10:21:57.405Z,16
2018-02-21T10:23:06.891Z,16
2018-02-21T10:24:16.369Z,12
2018-02-21T10:25:25.582Z,16
2018-02-21T10:26:35.336Z,16
2018-02-21T10:27:44.279Z,28
2018-02-21T10:28:54.021Z,16
2018-02-21T10:30:02.968Z,20
2018-02-21T10:31:11.908Z,32
2018-02-21T10:32:21.124Z,32
2018-02-21T10:33:30.336Z,20
2018-02-21T10:34:39.546Z,20
2018-02-21T10:35:49.022Z,16
2018-02-21T10:36:57.969Z,24
2018-02-21T10:38:06.643Z,28
2018-02-21T10:39:15.852Z,28
2018-02-21T10:40:25.341Z,24
2018-02-21T10:41:34.552Z,24
2018-02-21T10:42:43.758Z,32
2018-02-21T10:43:52.970Z,40
2018-02-21T10:45:02.450Z,20
2018-02-21T10:46:12.213Z,24
2018-02-21T10:47:21.150Z,24
2018-02-21T10:48:30.362Z,24
2018-02-21T10:49:39.589Z,32
2018-02-21T10:50:48.800Z,28
2018-02-21T10:51:58.019Z,28
2018-02-21T10:53:07.769Z,24
2018-02-21T10:54:17.252Z,20
2018-02-21T10:55:26.201Z,20
2018-02-21T10:56:35.151Z,24
2018-02-21T10:57:44.094Z,20
2018-02-21T10:58:53.302Z,20
2018-02-21T11:00:02.516Z,20
2018-02-21T11:01:11.726Z,16
2018-02-21T11:02:20.665Z,20
2018-02-21T11:03:29.616Z,16
2018-02-21T11:04:39.102Z,20
2018-02-21T11:05:48.312Z,20
2018-02-21T11:06:56.988Z,20
2018-02-21T11:08:06.465Z,16
2018-02-21T11:09:15.681Z,24
2018-02-21T11:10:24.621Z,32
2018-02-21T11:11:33.568Z,20
2018-02-21T11:12:42.516Z,28
2018-02-21T11:13:51.192Z,32
2018-02-21T11:14:59.868Z,24
2018-02-21T11:16:08.543Z,32
2018-02-21T11:17:17.756Z,28
2018-02-21T11:18:26.972Z,24
2018-02-21T11:19:35.917Z,24
2018-02-21T11:20:45.123Z,24
2018-02-21T11:21:54.335Z,28
2018-02-21T11:23:03.281Z,32
2018-02-21T11:24:12.230Z,32
2018-02-21T11:25:21.169Z,32
2018-02-21T11:26:30.377Z,32
2018-02-21T11:27:39.316Z,24
2018-02-21T11:28:49.065Z,36
2018-02-21T11:29:58.561Z,32
2018-02-21T11:31:07.773Z,28
2018-02-21T11:32:16.721Z,24
2018-02-21T11:33:25.657Z,24
2018-02-21T11:34:34.863Z,24
2018-02-21T11:35:43.805Z,16
2018-02-21T11:36:52.746Z,24
2018-02-21T11:38:02.358Z,24
2018-02-21T11:39:11.568Z,20
2018-02-21T11:40:20.776Z,20
2018-02-21T11:41:29.719Z,20
2018-02-21T11:42:38.659Z,24
2018-02-21T11:43:48.135Z,24
2018-02-21T11:44:57.084Z,20
2018-02-21T11:46:06.832Z,24
2018-02-21T11:47:15.512Z,24
2018-02-21T11:48:24.990Z,28
2018-02-21T11:49:34.479Z,44
2018-02-21T11:50:43.159Z,36
2018-02-21T11:51:52.103Z,24
2018-02-21T11:53:01.583Z,32
2018-02-21T11:54:10.521Z,32
2018-02-21T11:55:19.466Z,28
2018-02-21T11:56:28.413Z,32
2018-02-21T11:57:37.674Z,32
2018-02-21T11:58:46.894Z,36
2018-02-21T11:59:56.371Z,44
2018-02-21T12:01:05.586Z,44
2018-02-21T12:02:15.067Z,36
2018-02-21T12:03:24.805Z,36
2018-02-21T12:04:33.480Z,32
2018-02-21T12:05:42.424Z,28
2018-02-21T12:06:51.377Z,32
2018-02-21T12:08:01.170Z,24
2018-02-21T12:09:10.379Z,28
2018-02-21T12:10:19.622Z,24
2018-02-21T12:11:28.534Z,36
2018-02-21T12:12:38.027Z,32
2018-02-21T12:13:47.770Z,28
2018-02-21T12:14:56.979Z,28
2018-02-21T12:16:06.328Z,24
2018-02-21T12:17:15.257Z,32
2018-02-21T12:18:24.470Z,32
2018-02-21T12:19:33.686Z,24
2018-02-21T12:20:42.633Z,20
2018-02-21T12:21:51.308Z,20
2018-02-21T12:22:59.985Z,24
2018-02-21T12:24:08.929Z,20
2018-02-21T12:25:17.876Z,20
2018-02-21T12:26:27.357Z,32
2018-02-21T12:27:36.306Z,24
2018-02-21T12:28:45.785Z,24
2018-02-21T12:29:54.734Z,36
2018-02-21T12:31:03.939Z,32
2018-02-21T12:32:13.151Z,36
2018-02-21T12:33:22.359Z,40
2018-02-21T12:34:32.107Z,28
2018-02-21T12:35:41.055Z,36
2018-02-21T12:36:50.543Z,44
2018-02-21T12:37:59.487Z,48
2018-02-21T12:39:08.969Z,48
2018-02-21T12:40:17.650Z,52
2018-02-21T12:41:26.870Z,52
2018-02-21T12:42:36.619Z,52
2018-02-21T12:43:46.092Z,52
2018-02-21T12:44:55.354Z,52
2018-02-21T12:46:04.241Z,48
2018-02-21T12:47:12.920Z,52
2018-02-21T12:48:22.398Z,52
2018-02-21T12:49:31.347Z,48
2018-02-21T12:50:40.296Z,48
2018-02-21T12:51:48.967Z,52
2018-02-21T12:52:57.645Z,48
2018-02-21T12:54:07.125Z,52
2018-02-21T12:55:15.805Z,48
2018-02-21T12:56:25.288Z,48
2018-02-21T12:57:34.767Z,40
2018-02-21T12:58:43.708Z,36
2018-02-21T12:59:52.921Z,16
2018-02-21T13:01:01.864Z,12
2018-02-21T13:02:10.548Z,12
2018-02-21T13:03:19.767Z,12
2018-02-21T13:04:28.976Z,20
2018-02-21T13:05:38.190Z,40
2018-02-21T13:06:47.131Z,16
2018-02-21T13:07:56.610Z,16
2018-02-21T13:09:06.092Z,20
2018-02-21T13:10:15.302Z,20
2018-02-21T13:11:24.507Z,20
2018-02-21T13:12:33.718Z,12
2018-02-21T13:13:42.668Z,8
2018-02-21T13:14:51.606Z,8
2018-02-21T13:16:00.816Z,4
2018-02-21T13:17:09.755Z,4
2018-02-21T13:18:19.086Z,4
2018-02-21T13:19:27.965Z,4
2018-02-21T13:20:37.182Z,4
2018-02-21T13:21:46.120Z,4
2018-02-21T13:22:55.068Z,4
2018-02-21T13:24:04.279Z,4
2018-02-21T13:25:13.226Z,8
2018-02-21T13:26:21.902Z,4
2018-02-21T13:27:31.121Z,8
2018-02-21T13:28:39.799Z,8
2018-02-21T13:29:49.015Z,8
2018-02-21T13:30:58.223Z,8
2018-02-21T13:32:07.176Z,12
2018-02-21T13:33:16.120Z,12
2018-02-21T13:34:25.070Z,16
2018-02-21T13:35:34.015Z,20
2018-02-21T13:36:43.499Z,24
2018-02-21T13:37:52.755Z,20
2018-02-21T13:39:02.049Z,24
2018-02-21T13:40:10.994Z,20
2018-02-21T13:41:20.470Z,24
2018-02-21T13:42:29.678Z,24
2018-02-21T13:43:38.890Z,24
2018-02-21T13:44:47.637Z,28
2018-02-21T13:45:56.848Z,24
2018-02-21T13:47:06.061Z,24
2018-02-21T13:48:15.268Z,24
2018-02-21T13:49:24.213Z,28
2018-02-21T13:50:33.432Z,24
2018-02-21T13:51:42.379Z,24
2018-02-21T13:52:51.322Z,24
2018-02-21T13:54:00.809Z,24
2018-02-21T13:55:09.752Z,24
2018-02-21T13:56:18.962Z,24
2018-02-21T13:57:28.710Z,24
2018-02-21T13:58:37.387Z,24
2018-02-21T13:59:46.332Z,20
2018-02-21T14:00:55.555Z,24
2018-02-21T14:02:04.494Z,24
2018-02-21T14:03:13.978Z,24
2018-02-21T14:04:23.190Z,20
2018-02-21T14:05:32.132Z,24
2018-02-21T14:06:40.888Z,20
2018-02-21T14:07:50.172Z,20
2018-02-21T14:08:59.378Z,20
2018-02-21T14:10:08.324Z,20
2018-02-21T14:11:17.535Z,20
2018-02-21T14:12:26.746Z,20
2018-02-21T14:13:36.491Z,16
2018-02-21T14:14:45.438Z,16
2018-02-21T14:15:54.650Z,16
2018-02-21T14:17:03.873Z,16
2018-02-21T14:18:12.820Z,20
2018-02-21T14:19:22.303Z,16
2018-02-21T14:20:31.246Z,12
2018-02-21T14:21:40.722Z,16
2018-02-21T14:22:49.400Z,16
2018-02-21T14:23:58.343Z,16
2018-02-21T14:25:07.554Z,16
2018-02-21T14:26:17.563Z,12
2018-02-21T14:27:26.241Z,16
2018-02-21T14:28:35.451Z,16
2018-02-21T14:29:45.200Z,16
2018-02-21T14:30:54.145Z,12
2018-02-21T14:32:03.122Z,16
2018-02-21T14:33:12.033Z,12
2018-02-21T14:34:20.981Z,12
2018-02-21T14:35:30.240Z,12
2018-02-21T14:36:38.918Z,12
2018-02-21T14:37:47.860Z,8
2018-02-21T14:38:57.075Z,12
2018-02-21T14:40:06.288Z,12
2018-02-21T14:41:15.500Z,8
2018-02-21T14:42:24.440Z,8
2018-02-21T14:43:33.118Z,12
2018-02-21T14:44:42.326Z,12
2018-02-21T14:45:51.808Z,12
2018-02-21T14:47:00.756Z,8
2018-02-21T14:48:10.505Z,8
2018-02-21T14:49:19.448Z,8
2018-02-21T14:50:28.653Z,8
2018-02-21T14:51:37.864Z,8
2018-02-21T14:52:46.543Z,8
2018-02-21T14:53:55.485Z,8
2018-02-21T14:55:04.698Z,8
2018-02-21T14:56:13.641Z,4
2018-02-21T14:57:23.126Z,8
2018-02-21T14:58:32.338Z,8
2018-02-21T14:59:41.555Z,4
2018-02-21T15:00:50.782Z,4
2018-02-21T15:02:00.225Z,8
2018-02-21T15:03:09.279Z,4
2018-02-21T15:04:18.225Z,4
2018-02-21T15:05:27.173Z,4
2018-02-21T15:06:36.118Z,4
2018-02-21T15:07:45.067Z,8
2018-02-21T15:08:53.745Z,4
2018-02-21T15:10:02.694Z,4
2018-02-21T15:11:12.182Z,8
2018-02-21T15:12:21.393Z,4
2018-02-21T15:13:30.341Z,4
2018-02-21T15:14:39.027Z,4
2018-02-21T15:15:48.238Z,4
2018-02-21T15:16:56.917Z,4
2018-02-21T15:18:06.130Z,4
2018-02-21T15:19:15.346Z,4
2018-02-21T15:20:24.292Z,0
2018-02-21T15:21:34.038Z,0
2018-02-21T15:22:42.984Z,4
2018-02-21T15:23:51.932Z,4
2018-02-21T15:25:00.881Z,4
2018-02-21T15:26:10.633Z,4
2018-02-21T15:27:19.309Z,4
2018-02-21T15:28:28.794Z,4
2018-02-21T15:29:37.473Z,4
2018-02-21T15:30:46.423Z,4
2018-02-21T15:31:55.639Z,4
2018-02-21T15:33:05.147Z,4
2018-02-21T15:34:14.136Z,4
2018-02-21T15:35:23.450Z,0
2018-02-21T15:36:32.433Z,4
2018-02-21T15:37:41.912Z,0
2018-02-21T15:38:50.794Z,0
2018-02-21T15:40:00.056Z,0
2018-02-21T15:41:09.536Z,4
2018-02-21T15:42:18.487Z,0
2018-02-21T15:43:28.237Z,0
2018-02-21T15:44:37.454Z,0
2018-02-21T15:45:46.671Z,0
2018-02-21T15:46:55.615Z,4
2018-02-21T15:48:04.560Z,4
2018-02-21T15:49:13.506Z,4
2018-02-21T15:50:22.719Z,4
2018-02-21T15:51:31.665Z,4
2018-02-21T15:52:40.613Z,4
2018-02-21T15:53:50.095Z,4
2018-02-21T15:54:59.044Z,4
2018-02-21T15:56:07.724Z,4
2018-02-21T15:57:16.673Z,0
2018-02-21T15:58:26.158Z,0
2018-02-21T15:59:35.376Z,0
2018-02-21T16:00:44.314Z,0
2018-02-21T16:01:52.998Z,0
2018-02-21T16:03:01.949Z,0
2018-02-21T16:04:11.162Z,0
2018-02-21T16:05:20.110Z,0
2018-02-21T16:06:29.594Z,0
2018-02-21T16:07:38.600Z,0
2018-02-21T16:08:47.863Z,0
2018-02-21T16:09:57.342Z,0
2018-02-21T16:11:06.024Z,0
2018-02-21T16:12:15.507Z,0
2018-02-21T16:13:24.723Z,4
2018-02-21T16:14:33.941Z,4
2018-02-21T16:15:42.887Z,4
2018-02-21T16:16:51.837Z,4
2018-02-21T16:18:01.576Z,4
2018-02-21T16:19:11.055Z,4
2018-02-21T16:20:20.274Z,0
2018-02-21T16:21:29.219Z,0
2018-02-21T16:22:38.167Z,0
2018-02-21T16:23:47.119Z,0
2018-02-21T16:24:56.065Z,0
2018-02-21T16:26:05.013Z,0
2018-02-21T16:27:13.987Z,0
2018-02-21T16:28:22.933Z,0
2018-02-21T16:29:31.886Z,0
2018-02-21T16:30:40.566Z,0
2018-02-21T16:31:49.520Z,0
2018-02-21T16:32:58.736Z,0
2018-02-21T16:34:07.949Z,0
2018-02-21T16:35:16.639Z,0
2018-02-21T16:36:25.594Z,0
2018-02-21T16:37:34.550Z,0
2018-02-21T16:38:43.767Z,0
2018-02-21T16:39:52.715Z,0
2018-02-21T16:41:01.664Z,0
2018-02-21T16:42:10.883Z,0
2018-02-21T16:43:20.104Z,0
2018-02-21T16:44:28.783Z,0
2018-02-21T16:45:37.463Z,0
2018-02-21T16:46:46.415Z,0
2018-02-21T16:47:55.627Z,0
2018-02-21T16:49:04.309Z,0
2018-02-21T16:50:13.254Z,0
2018-02-21T16:51:21.933Z,0
2018-02-21T16:52:30.611Z,0
2018-02-21T16:53:39.555Z,0